Time;durP1;ratioP1;P1;durP2;ratioP2;P2;SDS_P1;SDS_P2;PMS_P1;PMS_P2;Temp;Humidity;BMP_temperature;BMP_pressure;BME280_temperature;BME280_humidity;BME280_pressure;Samples;Min_cycle;Max_cycle;Signal;HPM_P1;HPM_P2
2022/11/08 00:01:30;;;;;;;13.13;8.20;;;;;;;18.93;53.37;101691.94;5035182;28;20065;-82
2022/11/08 00:03:10;;;;;;;11.10;7.28;;;;;;;18.92;53.51;101691.09;5034757;28;20541;-82
2022/11/08 00:14:01;;;;;;;9.02;7.28;;;;;;;18.92;53.68;101695.56;5035134;28;20065;-82
2022/11/08 00:16:29;;;;;;;10.50;6.97;;;;;;;18.91;53.47;101693.84;5035334;28;20064;-82
2022/11/08 00:18:56;;;;;;;9.57;7.47;;;;;;;18.90;53.50;101686.78;5034854;28;20053;-81
2022/11/08 00:21:24;;;;;;;8.95;7.30;;;;;;;18.89;53.65;101695.81;5034207;28;20045;-81
2022/11/08 00:23:51;;;;;;;8.90;6.63;;;;;;;18.88;53.69;101689.59;5034406;28;20068;-81
2022/11/08 00:26:18;;;;;;;9.65;7.70;;;;;;;18.89;53.47;101693.13;5034602;28;20428;-81
2022/11/08 00:28:46;;;;;;;7.15;6.40;;;;;;;18.90;53.62;101684.09;5029445;28;20057;-81
2022/11/08 00:31:13;;;;;;;9.80;7.03;;;;;;;18.89;53.63;101687.75;5016215;28;20045;-81
2022/11/08 00:33:40;;;;;;;10.02;7.47;;;;;;;18.88;53.45;101686.03;5016402;28;20386;-81
2022/11/08 00:36:08;;;;;;;10.98;7.28;;;;;;;18.88;53.51;101686.03;5016551;28;20401;-81
2022/11/08 00:38:35;;;;;;;10.38;6.78;;;;;;;18.87;53.58;101693.22;5016345;28;20049;-81
2022/11/08 00:41:03;;;;;;;9.10;6.90;;;;;;;18.88;53.43;101696.75;5016457;28;20508;-80
2022/11/08 00:43:30;;;;;;;10.23;6.32;;;;;;;18.87;53.64;101695.91;5016202;28;20053;-82
2022/11/08 00:45:57;;;;;;;8.77;7.20;;;;;;;18.87;53.45;101695.03;5015481;28;20054;-82
2022/11/08 00:48:24;;;;;;;8.65;6.90;;;;;;;18.86;53.49;101696.88;5016056;28;20050;-81
2022/11/08 00:50:52;;;;;;;9.27;6.82;;;;;;;18.86;53.24;101696.88;5016521;28;20409;-82
2022/11/08 00:53:19;;;;;;;9.80;7.43;;;;;;;18.86;53.55;101698.69;5014715;28;20050;-81
2022/11/08 00:55:47;;;;;;;9.60;6.88;;;;;;;18.86;53.45;101693.34;5016775;28;20385;-82
2022/11/08 00:58:14;;;;;;;9.27;6.85;;;;;;;18.86;53.42;101698.69;5016199;28;20053;-81
2022/11/08 01:00:42;;;;;;;9.13;6.78;;;;;;;18.86;53.50;101699.56;5015336;28;20485;-81
2022/11/08 01:03:18;;;;;;;9.57;7.05;;;;;;;18.86;53.52;101704.06;5015820;28;20076;-81
2022/11/08 01:05:47;;;;;;;9.82;7.20;;;;;;;18.84;53.43;101704.19;5016087;28;20050;-82
2022/11/08 01:08:15;;;;;;;9.05;6.55;;;;;;;18.85;53.74;101705.91;5015766;28;20053;-81
2022/11/08 01:10:45;;;;;;;9.85;6.75;;;;;;;18.84;53.65;101701.50;5014499;28;20046;-82
2022/11/08 01:13:12;;;;;;;8.38;6.65;;;;;;;18.83;53.51;101697.09;5016406;28;20057;-81
2022/11/08 01:15:42;;;;;;;7.53;6.30;;;;;;;18.84;53.43;101701.50;5015547;28;20516;-81
2022/11/08 01:18:12;;;;;;;9.43;6.88;;;;;;;18.84;53.82;101704.19;5015673;28;20054;-81
2022/11/08 01:20:40;;;;;;;7.95;7.05;;;;;;;18.83;53.58;101702.44;5014719;28;20060;-82
2022/11/08 01:23:09;;;;;;;8.15;6.15;;;;;;;18.84;53.94;101697.94;5015746;28;20042;-82
2022/11/08 01:25:47;;;;;;;9.07;6.28;;;;;;;18.83;53.73;101696.22;5015498;28;20045;-82
2022/11/08 01:28:15;;;;;;;8.40;6.13;;;;;;;18.83;53.28;101696.22;5014198;28;20379;-80
2022/11/08 01:30:44;;;;;;;8.80;6.57;;;;;;;18.82;53.66;101692.69;5015418;28;20049;-79
2022/11/08 01:33:12;;;;;;;9.32;6.43;;;;;;;18.82;53.69;101692.69;5016051;28;20050;-80
2022/11/08 01:35:42;;;;;;;8.90;6.65;;;;;;;18.82;53.49;101689.16;5015418;28;20041;-80
2022/11/08 01:38:10;;;;;;;9.13;6.63;;;;;;;18.80;53.37;101686.59;5014885;28;20394;-80
2022/11/08 01:40:45;;;;;;;8.75;6.63;;;;;;;18.81;53.39;101687.44;5015223;28;20045;-79
2022/11/08 01:43:25;;;;;;;8.73;6.13;;;;;;;18.80;53.54;101681.22;5014586;28;20045;-80
2022/11/08 01:46:17;;;;;;;9.80;6.60;;;;;;;18.80;53.52;101683.03;5015474;28;20050;-81
2022/11/08 01:49:06;;;;;;;9.25;6.47;;;;;;;18.80;53.29;101683.91;4997750;28;20512;-81
2022/11/08 01:51:39;;;;;;;9.77;6.82;;;;;;;18.79;53.19;101676.81;5015519;28;20042;-81
2022/11/08 01:54:09;;;;;;;6.55;5.35;;;;;;;18.78;53.34;101681.31;5015119;28;20054;-81
2022/11/08 01:56:38;;;;;;;8.15;6.38;;;;;;;18.78;53.23;101684.00;5015373;28;20073;-81
2022/11/08 01:59:09;;;;;;;8.75;6.57;;;;;;;18.78;53.45;101675.09;5015508;28;20045;-81
2022/11/08 02:01:36;;;;;;;9.15;6.18;;;;;;;18.78;53.39;101672.41;5015245;28;20389;-80
2022/11/08 02:04:05;;;;;;;9.45;6.55;;;;;;;18.78;53.50;101675.09;5013570;28;20053;-80
2022/11/08 02:06:37;;;;;;;8.20;6.40;;;;;;;18.77;53.17;101668.88;5015159;28;20470;-80
2022/11/08 02:09:08;;;;;;;10.70;6.20;;;;;;;18.77;53.43;101676.91;5015425;28;20054;-81
2022/11/08 02:11:35;;;;;;;8.32;5.85;;;;;;;18.76;53.31;101663.63;5014848;28;20042;-82
2022/11/08 02:14:03;;;;;;;9.05;6.43;;;;;;;18.76;53.43;101669.00;5015326;28;20057;-81
2022/11/08 02:16:31;;;;;;;7.20;5.70;;;;;;;18.75;53.43;101673.47;5013457;28;20057;-81
2022/11/08 02:18:58;;;;;;;8.80;6.15;;;;;;;18.74;53.38;101666.41;5014355;28;20057;-81
2022/11/08 02:21:45;;;;;;;8.52;6.28;;;;;;;18.75;53.38;101662.75;5014836;28;20053;-80
2022/11/08 02:24:13;;;;;;;9.88;6.53;;;;;;;18.75;53.32;101662.75;5015182;28;20050;-80
2022/11/08 02:26:41;;;;;;;7.55;6.05;;;;;;;18.74;53.34;101661.03;5014576;28;20046;-80
2022/11/08 02:29:41;;;;;;;8.35;6.30;;;;;;;18.74;53.44;101647.63;5015312;28;20068;-80
2022/11/08 02:32:10;;;;;;;8.30;6.35;;;;;;;18.74;53.39;101654.81;5023650;28;20417;-81
2022/11/08 02:34:50;;;;;;;8.32;5.80;;;;;;;18.73;53.19;101642.38;5014313;28;20049;-81
2022/11/08 02:37:19;;;;;;;8.23;6.57;;;;;;;18.73;53.40;101653.97;5014797;28;20050;-81
2022/11/08 02:39:47;;;;;;;7.25;6.03;;;;;;;18.74;53.26;101649.44;5013150;28;20490;-81
2022/11/08 02:42:17;;;;;;;8.48;6.03;;;;;;;18.73;53.68;101648.59;5014637;28;20049;-82
2022/11/08 02:44:45;;;;;;;7.15;6.18;;;;;;;18.73;53.32;101643.22;5013150;28;20054;-82
2022/11/08 02:47:13;;;;;;;7.97;5.80;;;;;;;18.73;53.08;101637.00;5014415;28;20433;-82
2022/11/08 02:49:40;;;;;;;7.47;5.47;;;;;;;18.72;53.16;101635.31;5013377;28;20050;-82
2022/11/08 02:52:07;;;;;;;8.23;6.03;;;;;;;18.71;53.31;101641.63;5014650;28;20041;-82
2022/11/08 02:54:35;;;;;;;7.18;5.78;;;;;;;18.71;53.08;101642.47;5012334;28;20409;-82
2022/11/08 02:57:02;;;;;;;7.95;5.68;;;;;;;18.72;53.20;101638.00;5013167;28;20050;-81
2022/11/08 02:59:30;;;;;;;8.07;5.93;;;;;;;18.71;53.37;101634.41;5014116;28;20053;-81
2022/11/08 03:01:57;;;;;;;10.10;6.00;;;;;;;18.71;53.16;101637.09;5013984;28;20041;-81
2022/11/08 03:04:24;;;;;;;7.57;5.68;;;;;;;18.70;53.41;101635.38;5014448;28;20049;-81
2022/11/08 03:06:52;;;;;;;7.88;5.32;;;;;;;18.71;53.32;101636.25;5013964;28;20045;-81
2022/11/08 03:09:19;;;;;;;6.78;4.78;;;;;;;18.71;53.36;101646.97;5013121;28;20042;-81
2022/11/08 03:11:46;;;;;;;8.55;5.40;;;;;;;18.71;53.41;101644.28;5014134;28;20054;-81
2022/11/08 03:14:13;;;;;;;9.88;6.00;;;;;;;18.71;53.53;101639.78;5012684;28;20065;-81
2022/11/08 03:16:41;;;;;;;11.82;6.25;;;;;;;18.70;53.51;101640.75;5013542;28;20041;-81
2022/11/08 03:19:10;;;;;;;9.80;5.72;;;;;;;18.71;53.41;101631.72;5013654;28;20409;-82
2022/11/08 03:21:38;;;;;;;9.13;5.50;;;;;;;18.70;53.42;101639.91;5013781;28;20419;-82
2022/11/08 03:24:05;;;;;;;7.50;5.05;;;;;;;18.70;53.46;101639.91;5013772;28;20049;-80
2022/11/08 03:26:33;;;;;;;8.55;5.63;;;;;;;18.70;53.53;101643.44;5012501;28;20175;-81
2022/11/08 03:29:00;;;;;;;8.52;5.90;;;;;;;18.70;53.45;101632.72;5013593;28;20053;-81
2022/11/08 03:31:27;;;;;;;6.95;5.30;;;;;;;18.68;53.54;101631.94;5012156;28;20042;-81
2022/11/08 03:33:55;;;;;;;7.65;4.80;;;;;;;18.68;53.31;101634.63;5013967;28;20362;-81
2022/11/08 03:36:22;;;;;;;7.85;5.25;;;;;;;18.68;53.42;101634.63;5014161;28;20056;-81
2022/11/08 03:38:49;;;;;;;8.82;5.65;;;;;;;18.67;53.47;101630.19;5013333;28;20049;-80
2022/11/08 03:41:17;;;;;;;12.38;6.75;;;;;;;18.69;53.44;101630.13;5014154;28;20046;-81
2022/11/08 03:43:44;;;;;;;7.90;5.43;;;;;;;18.68;53.41;101628.41;5013621;28;20490;-81
2022/11/08 03:46:11;;;;;;;7.93;5.72;;;;;;;18.68;53.33;101629.25;5013229;28;20042;-81
2022/11/08 03:48:38;;;;;;;7.25;4.90;;;;;;;18.67;53.34;101624.84;5012981;28;20044;-85
2022/11/08 03:51:06;;;;;;;8.05;5.57;;;;;;;18.67;53.56;101624.00;5013094;28;20064;-83
2022/11/08 03:53:33;;;;;;;7.43;5.70;;;;;;;18.67;53.45;101629.34;4997039;28;20054;-83
2022/11/08 03:56:01;;;;;;;9.10;5.47;;;;;;;18.67;53.38;101627.53;5013811;28;20046;-82
2022/11/08 03:58:28;;;;;;;7.43;5.28;;;;;;;18.67;53.37;101632.03;5013640;28;20382;-82
2022/11/08 04:00:57;;;;;;;7.45;4.93;;;;;;;18.66;53.41;101623.13;5012508;28;20049;-82
2022/11/08 04:03:24;;;;;;;9.95;5.38;;;;;;;18.66;53.35;101625.81;5012846;28;20049;-83
2022/11/08 04:05:51;;;;;;;9.52;5.55;;;;;;;18.65;53.47;101624.09;5013724;28;20042;-82
2022/11/08 04:08:19;;;;;;;8.52;5.47;;;;;;;18.66;53.44;101625.81;5017181;28;20057;-82
2022/11/08 04:10:46;;;;;;;7.30;5.35;;;;;;;18.65;53.58;101618.75;5016716;28;20397;-82
2022/11/08 04:16:00;;;;;;;9.32;5.57;;;;;;;18.65;53.49;101618.75;5016848;28;20046;-80
2022/11/08 04:21:18;;;;;;;8.23;5.30;;;;;;;18.65;53.58;101612.53;5017664;28;20057;-82
2022/11/08 04:23:48;;;;;;;6.07;4.80;;;;;;;18.65;53.49;101616.06;5017314;28;20045;-81
2022/11/08 04:26:16;;;;;;;7.47;4.95;;;;;;;18.64;53.64;101614.34;5016736;28;20378;-81
2022/11/08 04:28:44;;;;;;;7.38;5.03;;;;;;;18.64;53.57;101611.66;5016351;28;20050;-81
2022/11/08 04:31:18;;;;;;;9.77;5.10;;;;;;;18.64;53.51;101614.34;5015499;28;20371;-81
2022/11/08 04:33:46;;;;;;;9.07;5.72;;;;;;;18.63;53.69;101614.44;5017281;28;20053;-81
2022/11/08 04:36:15;;;;;;;7.53;4.80;;;;;;;18.64;53.60;101608.13;4999554;28;20057;-81
2022/11/08 04:38:46;;;;;;;7.57;5.00;;;;;;;18.63;53.59;101615.28;5015552;28;20046;-82
2022/11/08 04:41:14;;;;;;;5.72;4.45;;;;;;;18.63;53.49;101615.28;5017112;28;20060;-82
2022/11/08 04:43:42;;;;;;;6.65;4.53;;;;;;;18.64;53.43;101616.19;5015229;28;20069;-82
2022/11/08 04:46:12;;;;;;;7.72;5.32;;;;;;;18.62;53.44;101610.91;5016503;28;20050;-81
2022/11/08 04:48:40;;;;;;;7.63;5.40;;;;;;;18.62;53.49;101613.59;5016748;28;20046;-81
2022/11/08 04:51:16;;;;;;;6.25;5.07;;;;;;;18.63;53.40;101623.34;5016443;28;20505;-81
2022/11/08 04:53:44;;;;;;;6.15;4.85;;;;;;;18.62;53.24;101618.94;5016296;28;20543;-81
2022/11/08 04:56:15;;;;;;;8.13;5.05;;;;;;;18.62;53.38;101616.28;5015288;28;20417;-81
2022/11/08 04:58:44;;;;;;;6.70;4.70;;;;;;;18.62;53.38;101608.22;5015924;28;20060;-81
2022/11/08 05:01:15;;;;;;;6.25;4.32;;;;;;;18.61;53.36;101603.84;5015438;28;20046;-81
2022/11/08 05:03:44;;;;;;;11.45;4.80;;;;;;;18.61;53.39;101614.56;5016503;28;20045;-82
2022/11/08 05:06:17;;;;;;;9.20;5.80;;;;;;;18.61;53.27;101603.84;5015990;28;20049;-81
2022/11/08 05:08:45;;;;;;;6.40;4.60;;;;;;;18.61;53.34;101605.66;5015861;28;20053;-81
2022/11/08 05:11:18;;;;;;;8.82;5.05;;;;;;;18.62;53.15;101612.72;5016313;28;20045;-82
2022/11/08 05:13:48;;;;;;;6.30;4.40;;;;;;;18.60;53.24;101607.50;5015093;28;20054;-80
2022/11/08 05:16:23;;;;;;;7.18;4.68;;;;;;;18.60;53.23;101607.50;5016026;28;20056;-81
2022/11/08 05:18:51;;;;;;;7.25;5.03;;;;;;;18.60;53.01;101599.44;5014000;28;20054;-82
2022/11/08 05:24:09;;;;;;;6.60;4.55;;;;;;;18.59;53.23;101605.75;5016186;28;20054;-81
2022/11/08 05:26:40;;;;;;;10.02;4.35;;;;;;;18.60;53.02;101603.94;5015913;28;20046;-82
2022/11/08 05:29:09;;;;;;;5.55;4.45;;;;;;;18.58;53.06;101601.38;5015776;28;20054;-81
2022/11/08 05:31:37;;;;;;;6.22;4.13;;;;;;;18.59;53.12;101596.84;5016033;28;20492;-82
2022/11/08 05:34:06;;;;;;;6.88;4.70;;;;;;;18.57;53.15;101599.66;5014415;28;20501;-81
2022/11/08 05:36:33;;;;;;;8.50;5.03;;;;;;;18.58;53.12;101598.69;5015163;28;20053;-82
2022/11/08 05:39:00;;;;;;;9.00;5.15;;;;;;;18.59;53.04;101596.84;5015825;28;20046;-82
2022/11/08 05:41:28;;;;;;;6.38;4.57;;;;;;;18.57;53.05;101591.59;5013902;28;20050;-81
2022/11/08 05:43:56;;;;;;;9.18;4.93;;;;;;;18.56;53.01;101592.59;5015409;28;20045;-82
2022/11/08 05:46:24;;;;;;;6.35;4.20;;;;;;;18.56;53.01;101600.63;5015935;28;20053;-83
2022/11/08 05:48:51;;;;;;;6.63;4.90;;;;;;;18.57;52.88;101596.97;5014700;28;20050;-82
2022/11/08 05:51:20;;;;;;;5.40;4.40;;;;;;;18.55;53.02;101606.94;5014077;28;20046;-82
2022/11/08 05:53:47;;;;;;;6.32;4.25;;;;;;;18.56;52.94;101608.66;5015418;28;20050;-84
2022/11/08 05:56:16;;;;;;;8.90;5.38;;;;;;;18.56;53.01;101610.50;5015533;28;20482;-84
2022/11/08 05:58:44;;;;;;;7.82;4.70;;;;;;;18.56;53.05;101607.81;5015782;28;20049;-83
2022/11/08 06:01:14;;;;;;;4.63;3.38;;;;;;;18.55;52.93;101609.63;5015571;28;20096;-83
2022/11/08 06:03:41;;;;;;;5.78;4.32;;;;;;;18.56;52.81;101621.22;4998052;28;20050;-83
2022/11/08 06:06:11;;;;;;;6.43;3.83;;;;;;;18.54;52.96;101618.63;5014288;28;20068;-84
2022/11/08 06:08:44;;;;;;;7.82;4.85;;;;;;;18.56;53.01;101627.44;5015543;28;20053;-83
2022/11/08 06:11:25;;;;;;;6.07;4.17;;;;;;;18.54;53.00;101616.81;5015224;28;20045;-83
2022/11/08 06:13:54;;;;;;;6.15;4.35;;;;;;;18.54;52.97;101621.31;5015071;28;20046;-83
2022/11/08 06:16:22;;;;;;;5.95;4.03;;;;;;;18.55;52.89;101612.28;5014622;28;20041;-84
2022/11/08 06:18:50;;;;;;;6.32;3.65;;;;;;;18.54;52.95;101613.28;5014152;28;20046;-84
2022/11/08 06:21:19;;;;;;;7.22;4.00;;;;;;;18.54;53.03;101616.81;5015543;28;20068;-84
2022/11/08 06:23:47;;;;;;;5.55;4.25;;;;;;;18.53;52.98;101623.13;5015156;28;20052;-84
2022/11/08 06:26:14;;;;;;;6.75;4.38;;;;;;;18.53;53.14;101620.47;5015105;28;20068;-85
2022/11/08 06:28:41;;;;;;;7.20;4.15;;;;;;;18.54;53.07;101626.69;5014140;28;20052;-85
2022/11/08 06:31:09;;;;;;;5.93;3.83;;;;;;;18.51;53.11;101627.78;5014058;28;20049;-86
2022/11/08 06:33:36;;;;;;;6.78;4.43;;;;;;;18.52;53.07;101629.47;5014197;28;20050;-85
2022/11/08 06:36:05;;;;;;;7.82;4.70;;;;;;;18.54;53.00;101632.03;5014512;28;20062;-83
2022/11/08 06:38:32;;;;;;;6.90;3.92;;;;;;;18.53;52.92;101638.38;5014465;28;20046;-83
2022/11/08 06:41:01;;;;;;;6.78;4.18;;;;;;;18.52;52.98;101634.84;5014496;28;20054;-84
2022/11/08 06:43:28;;;;;;;7.43;4.07;;;;;;;18.52;52.99;101633.97;5014344;28;20406;-83
2022/11/08 06:46:00;;;;;;;8.52;4.03;;;;;;;18.53;53.11;101641.06;5013384;28;20405;-83
2022/11/08 06:48:27;;;;;;;6.07;4.50;;;;;;;18.52;53.10;101647.41;5015666;28;20046;-85
2022/11/08 06:51:02;;;;;;;5.80;4.07;;;;;;;18.53;53.02;101643.75;5013390;28;20057;-84
2022/11/08 06:53:30;;;;;;;6.20;4.40;;;;;;;18.52;52.89;101642.03;5014575;28;20034;-83
2022/11/08 06:55:59;;;;;;;6.60;3.75;;;;;;;18.53;53.00;101651.78;5016112;28;20390;-87
2022/11/08 06:58:26;;;;;;;6.72;4.32;;;;;;;18.52;52.82;101650.94;5013956;28;20501;-83
2022/11/08 07:00:54;;;;;;;6.03;4.00;;;;;;;18.51;53.03;101646.53;5013451;28;20160;-84
2022/11/08 07:03:21;;;;;;;5.05;3.25;;;;;;;18.53;53.03;101654.47;5013255;28;20046;-84
2022/11/08 07:05:48;;;;;;;6.40;3.88;;;;;;;18.52;53.12;101658.13;5013455;28;20375;-82
2022/11/08 07:08:15;;;;;;;7.03;4.07;;;;;;;18.51;53.10;101651.91;5014713;28;20057;-85
2022/11/08 07:10:50;;;;;;;5.38;4.03;;;;;;;18.52;52.98;101653.59;5014740;28;20049;-84
2022/11/08 07:13:18;;;;;;;6.72;4.13;;;;;;;18.52;53.20;101660.81;5013303;28;20057;-85
2022/11/08 07:15:48;;;;;;;7.63;4.55;;;;;;;18.51;53.11;101651.00;5013684;28;20485;-84
2022/11/08 07:18:18;;;;;;;5.63;3.60;;;;;;;18.52;52.93;101655.44;5014174;28;20049;-84
2022/11/08 07:20:46;;;;;;;7.47;4.03;;;;;;;18.51;52.94;101665.31;5016588;28;20050;-84
2022/11/08 07:23:13;;;;;;;5.82;3.45;;;;;;;18.52;53.07;101660.81;5016007;28;20049;-87
2022/11/08 07:25:41;;;;;;;8.65;3.95;;;;;;;18.52;53.00;101660.81;4998568;28;20064;-87
2022/11/08 07:28:15;;;;;;;6.18;4.00;;;;;;;18.52;52.92;101658.97;5014411;28;20057;-85
2022/11/08 07:30:44;;;;;;;5.75;3.72;;;;;;;18.52;53.25;101656.28;5014716;28;20053;-87
2022/11/08 07:33:12;;;;;;;11.13;5.25;;;;;;;18.52;52.59;101660.81;5014155;28;20053;-83
2022/11/08 07:35:40;;;;;;;6.40;3.85;;;;;;;18.52;52.73;101664.34;5014350;28;20057;-87
2022/11/08 07:38:08;;;;;;;6.63;3.40;;;;;;;18.53;53.44;101667.88;5014040;28;20500;-85
2022/11/08 07:40:35;;;;;;;5.70;3.67;;;;;;;18.52;53.70;101675.06;5014061;28;20049;-83
2022/11/08 07:43:02;;;;;;;5.72;3.50;;;;;;;18.54;53.65;101673.13;5018564;28;20406;-86
2022/11/08 07:45:40;;;;;;;7.80;3.83;;;;;;;18.55;53.61;101671.28;5018908;28;20056;-90
2022/11/08 07:48:11;;;;;;;10.45;3.75;;;;;;;18.56;53.57;101666.81;5018227;28;20065;-90
2022/11/08 07:50:40;;;;;;;8.05;4.30;;;;;;;18.57;54.01;101666.69;5001809;28;20398;-90
2022/11/08 07:53:09;;;;;;;8.32;3.45;;;;;;;18.57;54.13;101666.69;5018093;28;20382;-86
2022/11/08 07:55:37;;;;;;;8.13;3.28;;;;;;;18.58;54.51;101670.22;5019274;28;20057;-89
2022/11/08 07:58:06;;;;;;;10.15;7.05;;;;;;;18.56;52.01;101666.81;5018957;28;20053;-86
2022/11/08 08:00:36;;;;;;;15.32;9.82;;;;;;;18.36;50.30;101670.88;5018324;28;20421;-81
2022/11/08 08:03:05;;;;;;;13.52;9.15;;;;;;;18.31;50.58;101672.97;5017362;28;20073;-82
2022/11/08 08:05:35;;;;;;;10.68;8.68;;;;;;;18.29;50.73;101673.94;5017421;28;20057;-84
2022/11/08 08:08:03;;;;;;;13.25;10.38;;;;;;;18.31;50.87;101667.63;5001373;28;20061;-80
2022/11/08 08:10:33;;;;;;;16.23;10.73;;;;;;;18.32;50.56;101664.84;5018346;28;20050;-83
2022/11/08 08:13:01;;;;;;;12.98;10.25;;;;;;;18.34;49.82;101676.31;5016321;28;20054;-89
2022/11/08 08:15:28;;;;;;;13.50;9.05;;;;;;;18.37;50.10;101676.09;5016526;28;20409;-92
2022/11/08 08:17:59;;;;;;;13.38;10.95;;;;;;;18.39;49.80;101671.53;5000489;28;20054;-80
2022/11/08 08:20:26;;;;;;;16.92;12.32;;;;;;;18.42;49.44;101665.91;5017750;28;20057;-85
2022/11/08 08:22:54;;;;;;;15.57;12.52;;;;;;;18.46;49.42;101671.94;5018126;28;20042;-82
2022/11/08 08:25:21;;;;;;;20.98;13.38;;;;;;;18.47;49.72;101679.00;5018242;28;20046;-81
2022/11/08 08:27:51;;;;;;;14.65;10.55;;;;;;;18.48;49.93;101670.88;5000073;28;20416;-80
2022/11/08 08:30:18;;;;;;;13.23;10.75;;;;;;;18.48;50.14;101670.88;5017415;28;20042;-80
2022/11/08 08:32:47;;;;;;;18.15;10.50;;;;;;;18.51;50.48;101684.06;5015748;28;20073;-80
2022/11/08 08:35:35;;;;;;;16.02;10.88;;;;;;;18.53;49.98;101679.44;5016636;28;20049;-80
2022/11/08 08:38:04;;;;;;;17.35;11.38;;;;;;;18.55;50.06;101682.00;5016665;28;20049;-81
2022/11/08 08:40:33;;;;;;;14.35;10.68;;;;;;;18.56;50.07;101682.91;5016468;28;20061;-81
2022/11/08 08:43:02;;;;;;;18.05;12.05;;;;;;;18.56;50.35;101686.44;5017146;28;20508;-84
2022/11/08 08:45:33;;;;;;;18.83;12.98;;;;;;;18.56;50.47;101683.75;5017813;28;20054;-85
2022/11/08 08:48:01;;;;;;;15.48;12.25;;;;;;;18.56;50.38;101689.13;5018155;28;20045;-79
2022/11/08 08:50:30;;;;;;;18.23;12.60;;;;;;;18.56;50.24;101688.25;5016454;28;20042;-79
2022/11/08 08:52:58;;;;;;;16.20;13.48;;;;;;;18.56;50.24;101688.25;5016629;28;20072;-79
2022/11/08 08:55:26;;;;;;;20.77;14.05;;;;;;;18.54;50.51;101688.34;5016441;28;20054;-76
2022/11/08 08:57:54;;;;;;;16.85;12.45;;;;;;;18.53;50.72;101692.00;5016369;28;20506;-80
2022/11/08 09:00:22;;;;;;;16.05;12.40;;;;;;;18.54;50.94;101686.53;5016804;28;20505;-78
2022/11/08 09:03:10;;;;;;;16.27;13.32;;;;;;;18.55;50.70;101692.75;5017322;28;20947;-86
2022/11/08 09:05:42;;;;;;;18.38;12.55;;;;;;;18.53;50.71;101695.53;5016932;28;20057;-78
2022/11/08 09:08:10;;;;;;;15.50;13.10;;;;;;;18.54;50.88;101691.03;5016249;28;20049;-80
2022/11/08 09:10:38;;;;;;;14.13;12.13;;;;;;;18.55;51.00;101692.75;5016758;28;20279;-80
2022/11/08 09:13:05;;;;;;;14.73;11.07;;;;;;;18.57;51.15;101690.81;5014735;28;20185;-85
2022/11/08 09:15:32;;;;;;;19.80;12.48;;;;;;;18.55;50.76;101687.38;5015533;28;20042;-79
2022/11/08 09:18:00;;;;;;;16.60;12.02;;;;;;;18.55;51.25;101692.75;5016746;28;20050;-83
2022/11/08 09:20:27;;;;;;;16.08;12.07;;;;;;;18.54;51.10;101691.88;5014785;28;20053;-91
2022/11/08 09:23:00;;;;;;;17.50;12.90;;;;;;;18.54;50.99;101693.72;5015329;28;20049;-79
2022/11/08 09:25:28;;;;;;;15.27;12.48;;;;;;;18.54;51.31;101705.28;5016086;28;20046;-79
2022/11/08 09:27:55;;;;;;;16.50;12.40;;;;;;;18.55;51.24;101703.47;5016094;28;20050;-81
2022/11/08 09:30:22;;;;;;;17.20;13.38;;;;;;;18.54;51.16;101699.06;5015479;28;20501;-84
2022/11/08 09:32:52;;;;;;;17.23;13.75;;;;;;;18.56;51.09;101705.22;5014699;28;20058;-80
2022/11/08 09:35:29;;;;;;;18.38;13.57;;;;;;;18.57;51.14;101698.03;5015504;28;20404;-80
2022/11/08 09:37:57;;;;;;;14.27;11.13;;;;;;;18.58;51.27;101697.03;5015795;28;20056;-86
2022/11/08 09:40:38;;;;;;;9.00;7.57;;;;;;;18.60;51.79;101685.25;5015354;28;20409;-76
2022/11/08 09:43:15;;;;;;;10.57;7.78;;;;;;;18.63;51.93;101686.84;5016804;28;20046;-88
2022/11/08 09:45:46;;;;;;;10.27;7.50;;;;;;;18.65;51.82;101687.63;5014897;28;20065;-79
2022/11/08 09:48:20;;;;;;;11.85;7.55;;;;;;;18.66;51.80;101683.97;5015370;28;20038;-80
2022/11/08 09:50:51;;;;;;;10.18;7.40;;;;;;;18.67;51.98;101683.00;5015068;28;20050;-79
2022/11/08 09:53:22;;;;;;;9.38;7.00;;;;;;;18.68;51.72;101676.69;4998552;28;20049;-83
2022/11/08 09:56:01;;;;;;;9.15;7.13;;;;;;;18.70;52.09;101674.78;5016099;28;20060;-78
2022/11/08 09:58:42;;;;;;;9.85;7.55;;;;;;;18.70;51.97;101674.78;5015652;28;20077;-81
2022/11/08 10:01:11;;;;;;;10.85;6.68;;;;;;;18.72;52.63;101678.22;5015751;28;20393;-86
2022/11/08 10:03:45;;;;;;;9.27;6.72;;;;;;;18.73;52.42;101678.09;5015920;28;20038;-90
2022/11/08 10:06:28;;;;;;;11.00;7.20;;;;;;;18.75;52.39;101676.16;5014571;28;20069;-91
2022/11/08 10:09:17;;;;;;;11.10;7.47;;;;;;;18.76;52.63;101672.53;5014270;28;20057;-82
2022/11/08 10:11:50;;;;;;;9.77;6.80;;;;;;;18.77;52.52;101665.34;5014472;28;20058;-79
2022/11/08 10:14:39;;;;;;;9.95;6.43;;;;;;;18.77;52.36;101663.50;5014590;28;20046;-78
2022/11/08 10:17:23;;;;;;;7.45;5.70;;;;;;;18.80;52.49;101661.56;4994891;28;20050;-85
2022/11/08 10:20:02;;;;;;;8.60;6.00;;;;;;;18.79;52.73;101660.72;4996529;28;20050;-90
2022/11/08 10:22:36;;;;;;;8.15;6.65;;;;;;;18.80;52.51;101665.13;4993930;28;20058;-86
2022/11/08 10:25:35;;;;;;;7.47;5.00;;;;;;;18.81;52.35;101652.56;4994475;28;20418;-84
2022/11/08 10:28:04;;;;;;;9.48;5.85;;;;;;;18.81;52.59;101647.19;4996221;28;20046;-84
2022/11/08 10:30:41;;;;;;;9.30;5.72;;;;;;;18.82;52.79;101651.59;4987165;28;20045;-91
2022/11/08 10:33:21;;;;;;;10.25;5.75;;;;;;;18.82;52.59;101644.41;5014382;28;20049;-88
2022/11/08 10:35:57;;;;;;;8.77;5.90;;;;;;;18.83;52.60;101645.25;5013664;28;20061;-83
2022/11/08 10:38:38;;;;;;;6.85;5.68;;;;;;;18.84;52.54;101652.31;5013815;28;20045;-82
2022/11/08 10:41:14;;;;;;;9.45;5.78;;;;;;;18.84;52.79;101641.59;5016798;28;20041;-86
2022/11/08 10:43:50;;;;;;;10.65;6.15;;;;;;;18.86;52.88;101639.69;5016202;28;20045;-80
2022/11/08 10:46:40;;;;;;;9.23;5.38;;;;;;;18.86;52.77;101642.38;5014694;28;20049;-82
2022/11/08 10:49:10;;;;;;;6.15;4.97;;;;;;;18.86;52.57;101631.63;5015525;28;20060;-84
2022/11/08 10:51:38;;;;;;;8.48;6.13;;;;;;;18.87;52.40;101630.66;5015304;28;20053;-83
2022/11/08 10:54:05;;;;;;;8.73;5.45;;;;;;;18.87;53.06;101627.97;5012813;28;20038;-81
2022/11/08 10:56:53;;;;;;;9.10;5.68;;;;;;;18.87;52.93;101626.16;5013985;28;20054;-80
2022/11/08 10:59:31;;;;;;;11.57;5.88;;;;;;;18.88;52.78;101627.00;5012427;28;20417;-80
2022/11/08 11:01:59;;;;;;;10.55;6.03;;;;;;;18.88;52.53;101629.69;5013833;28;20061;-83
2022/11/08 11:04:29;;;;;;;8.88;5.97;;;;;;;18.88;52.55;101629.69;5013861;28;20057;-80
2022/11/08 11:07:28;;;;;;;9.73;7.65;;;;;;;18.88;52.10;101629.69;5013834;28;20056;-86
2022/11/08 11:09:55;;;;;;;12.98;6.93;;;;;;;18.88;52.19;101616.25;5013050;28;20394;-88
2022/11/08 11:12:23;;;;;;;12.10;6.65;;;;;;;18.87;52.16;101610.03;5014305;28;20052;-83
2022/11/08 11:14:57;;;;;;;9.95;7.68;;;;;;;18.88;52.32;101618.94;5012690;28;20056;-81
2022/11/08 11:17:32;;;;;;;8.57;6.50;;;;;;;18.87;52.46;101602.00;5016880;28;20046;-87
2022/11/08 11:20:19;;;;;;;9.63;6.93;;;;;;;18.88;52.65;101602.84;5017738;28;20050;-80
2022/11/08 11:22:46;;;;;;;9.52;6.40;;;;;;;18.89;52.83;101599.22;5018496;28;20061;-81
2022/11/08 11:25:19;;;;;;;10.70;6.50;;;;;;;18.89;52.98;101591.19;5019297;28;20057;-80
2022/11/08 11:27:59;;;;;;;9.25;6.07;;;;;;;18.91;52.93;101594.59;5018339;28;20057;-80
2022/11/08 11:30:28;;;;;;;9.77;5.50;;;;;;;18.90;53.16;101591.06;5018777;28;20058;-82
2022/11/08 11:33:00;;;;;;;8.15;6.22;;;;;;;18.91;53.04;101581.16;5016897;28;20054;-79
2022/11/08 11:35:47;;;;;;;7.80;6.10;;;;;;;18.91;52.87;101586.53;5018038;28;20493;-81
2022/11/08 11:38:42;;;;;;;7.82;5.85;;;;;;;18.92;52.89;101590.94;5016852;28;20057;-82
2022/11/08 11:41:34;;;;;;;9.02;5.85;;;;;;;18.92;53.04;101580.19;5017264;28;20109;-80
2022/11/08 11:44:20;;;;;;;7.70;5.78;;;;;;;18.91;52.81;101579.34;5017449;28;20046;-80
2022/11/08 11:47:13;;;;;;;8.80;5.88;;;;;;;18.93;52.83;101576.56;5000946;28;20413;-82
2022/11/08 11:49:43;;;;;;;8.25;6.28;;;;;;;18.92;52.82;101588.25;5001088;28;20061;-85
2022/11/08 11:52:16;;;;;;;8.63;5.47;;;;;;;18.92;53.15;101577.50;5017588;28;20369;-84
2022/11/08 11:54:46;;;;;;;9.73;5.63;;;;;;;18.93;52.92;101584.63;5000602;28;20046;-81